Time;durP1;ratioP1;P1;durP2;ratioP2;P2;SDS_P1;SDS_P2;PMS_P1;PMS_P2;Temp;Humidity;BMP_temperature;BMP_pressure;BME280_temperature;BME280_humidity;BME280_pressure;Samples;Min_cycle;Max_cycle;Signal;HPM_P1;HPM_P2
2023/01/04 00:00:58;;;;;;;;;;;12.10;59.80;;;;;;4970210;28;19976;-90
2023/01/04 00:03:24;;;;;;;;;;;12.00;59.70;;;;;;4962050;28;19964;-89
2023/01/04 00:05:49;;;;;;;;;;;12.00;59.60;;;;;;4973020;28;19961;-89
2023/01/04 00:08:15;;;;;;;;;;;12.00;59.60;;;;;;4977710;28;19918;-90
2023/01/04 00:10:40;;;;;;;;;;;12.10;59.70;;;;;;4979005;28;19918;-88
2023/01/04 00:13:05;;;;;;;;;;;12.00;59.60;;;;;;4966027;28;20130;-89
2023/01/04 00:15:31;;;;;;;;;;;12.10;59.60;;;;;;4974033;28;21421;-90
2023/01/04 00:17:56;;;;;;;;;;;12.00;59.50;;;;;;4971682;28;19918;-89
2023/01/04 00:20:22;;;;;;;;;;;12.10;59.50;;;;;;4968958;28;19993;-88
2023/01/04 00:22:47;;;;;;;;;;;12.00;59.30;;;;;;4965890;28;19939;-88
2023/01/04 00:25:13;;;;;;;;;;;12.00;59.30;;;;;;4984998;28;19914;-89
2023/01/04 00:27:38;;;;;;;;;;;12.00;59.30;;;;;;4970829;28;20009;-89
2023/01/04 00:30:04;;;;;;;;;;;12.00;59.40;;;;;;4970410;28;19918;-90
2023/01/04 00:32:30;;;;;;;;;;;12.00;59.40;;;;;;4969346;28;19922;-90
2023/01/04 00:34:56;;;;;;;;;;;12.00;59.30;;;;;;4968331;28;20004;-90
2023/01/04 00:37:21;;;;;;;;;;;12.00;59.20;;;;;;4968869;28;20424;-90
2023/01/04 00:39:46;;;;;;;;;;;12.00;59.30;;;;;;4957602;28;20026;-90
2023/01/04 00:42:12;;;;;;;;;;;12.10;59.20;;;;;;4964492;28;20020;-89
2023/01/04 00:44:37;;;;;;;;;;;12.00;59.10;;;;;;4964733;28;19915;-89
2023/01/04 00:47:03;;;;;;;;;;;12.00;59.40;;;;;;4970433;28;19949;-89
2023/01/04 00:49:29;;;;;;;;;;;12.10;59.30;;;;;;4970641;28;19925;-90
2023/01/04 00:51:55;;;;;;;;;;;12.00;59.30;;;;;;4970014;28;19922;-89
2023/01/04 00:54:21;;;;;;;;;;;12.00;59.30;;;;;;4967724;28;19929;-89
2023/01/04 00:56:46;;;;;;;;;;;12.10;59.10;;;;;;4974463;28;19923;-90
2023/01/04 00:59:13;;;;;;;;;;;12.10;59.70;;;;;;4949041;29;20025;-90
2023/01/04 01:01:39;;;;;;;;;;;12.20;59.40;;;;;;4966050;28;19992;-90
2023/01/04 01:04:04;;;;;;;;;;;12.20;59.30;;;;;;4953344;28;19918;-89
2023/01/04 01:06:31;;;;;;;;;;;12.30;59.70;;;;;;4953368;28;19922;-89
2023/01/04 01:08:56;;;;;;;;;;;12.30;59.30;;;;;;4970290;28;19914;-89
2023/01/04 01:11:22;;;;;;;;;;;12.40;59.50;;;;;;4973445;28;20025;-90
2023/01/04 01:13:48;;;;;;;;;;;12.50;59.40;;;;;;4972072;28;19945;-89
2023/01/04 01:16:16;;;;;;;;;;;12.50;59.60;;;;;;4970947;28;19918;-90
2023/01/04 01:18:42;;;;;;;;;;;12.50;59.40;;;;;;4973516;28;19968;-90
2023/01/04 01:21:10;;;;;;;;;;;12.50;59.20;;;;;;4980232;28;19926;-91
2023/01/04 01:23:35;;;;;;;;;;;12.50;58.90;;;;;;4992927;28;19918;-92
2023/01/04 01:26:05;;;;;;;;;;;12.70;59.10;;;;;;4984414;28;20017;-89
2023/01/04 01:28:32;;;;;;;;;;;12.60;58.90;;;;;;4973135;28;20349;-90
2023/01/04 01:31:01;;;;;;;;;;;12.70;58.90;;;;;;4974086;28;19921;-90
2023/01/04 01:33:26;;;;;;;;;;;12.80;58.90;;;;;;4973030;28;19946;-89
2023/01/04 01:35:52;;;;;;;;;;;12.90;58.70;;;;;;4988992;28;19925;-90
2023/01/04 01:38:17;;;;;;;;;;;13.00;58.60;;;;;;4991286;28;19921;-90
2023/01/04 01:40:43;;;;;;;;;;;12.90;58.50;;;;;;4992860;28;19918;-89
2023/01/04 01:43:15;;;;;;;;;;;13.00;58.40;;;;;;4989869;28;20277;-90
2023/01/04 01:45:41;;;;;;;;;;;13.10;58.40;;;;;;4988986;28;19914;-91
2023/01/04 01:48:13;;;;;;;;;;;13.10;58.30;;;;;;4974259;28;19936;-89
2023/01/04 01:50:42;;;;;;;;;;;13.30;58.50;;;;;;4992717;28;19910;-90
2023/01/04 01:53:08;;;;;;;;;;;13.30;58.00;;;;;;4992134;28;19918;-89
2023/01/04 01:55:35;;;;;;;;;;;13.30;57.80;;;;;;4981669;28;20296;-91
2023/01/04 01:58:02;;;;;;;;;;;13.40;57.70;;;;;;4974456;28;19930;-91
2023/01/04 02:00:28;;;;;;;;;;;13.50;57.40;;;;;;4976688;28;19922;-89
2023/01/04 02:03:10;;;;;;;;;;;13.50;57.30;;;;;;4990615;28;19984;-88
2023/01/04 02:05:36;;;;;;;;;;;13.50;57.10;;;;;;4988319;28;19917;-89
2023/01/04 02:08:02;;;;;;;;;;;13.50;57.10;;;;;;4991423;28;19926;-89
2023/01/04 02:10:28;;;;;;;;;;;13.50;57.00;;;;;;4986259;28;20265;-90
2023/01/04 02:12:53;;;;;;;;;;;13.70;57.20;;;;;;4990716;28;19914;-91
2023/01/04 02:15:22;;;;;;;;;;;13.60;56.90;;;;;;4990495;28;19972;-89
2023/01/04 02:17:52;;;;;;;;;;;13.70;57.40;;;;;;4995817;28;19922;-90
2023/01/04 02:20:37;;;;;;;;;;;13.60;57.80;;;;;;4979414;28;19922;-88
2023/01/04 02:23:07;;;;;;;;;;;13.60;58.50;;;;;;4967801;28;20263;-90
2023/01/04 02:25:51;;;;;;;;;;;13.30;58.80;;;;;;4995558;28;19914;-88
2023/01/04 02:28:28;;;;;;;;;;;13.30;59.60;;;;;;4992354;28;19913;-92
2023/01/04 02:31:09;;;;;;;;;;;13.20;60.10;;;;;;4973528;28;19914;-90
2023/01/04 02:33:38;;;;;;;;;;;13.10;61.10;;;;;;4988065;28;19918;-90
2023/01/04 02:36:16;;;;;;;;;;;13.10;61.70;;;;;;4986781;28;19918;-90
2023/01/04 02:38:47;;;;;;;;;;;12.80;62.00;;;;;;4972597;28;20001;-91
2023/01/04 02:41:32;;;;;;;;;;;12.80;62.20;;;;;;4971666;28;19918;-90
2023/01/04 02:46:50;;;;;;;;;;;12.70;63.20;;;;;;4954036;29;19925;-90
2023/01/04 02:52:00;;;;;;;;;;;12.70;63.70;;;;;;4976538;28;20019;-89
2023/01/04 02:54:29;;;;;;;;;;;12.70;63.80;;;;;;4983068;28;19991;-90
2023/01/04 02:57:07;;;;;;;;;;;12.70;63.80;;;;;;4987373;28;19985;-89
2023/01/04 02:59:40;;;;;;;;;;;12.80;63.80;;;;;;4998219;28;19933;-90
2023/01/04 03:08:26;;;;;;;;;;;12.70;64.40;;;;;;4959326;28;19918;-88
2023/01/04 03:12:30;;;;;;;;;;;12.70;64.60;;;;;;4987006;28;19956;-90
2023/01/04 03:13:52;;;;;;;;;;;12.60;64.70;;;;;;4956745;28;20317;-92
2023/01/04 03:16:20;;;;;;;;;;;12.60;64.80;;;;;;4975024;28;19925;-89
2023/01/04 03:18:48;;;;;;;;;;;12.70;64.80;;;;;;4975730;28;19937;-90
2023/01/04 03:21:15;;;;;;;;;;;12.70;64.90;;;;;;4980774;28;19918;-92
2023/01/04 03:35:22;;;;;;;;;;;12.70;65.40;;;;;;4983523;28;19988;-89
2023/01/04 03:49:49;;;;;;;;;;;12.80;65.90;;;;;;4984082;28;19961;-91
2023/01/04 03:52:14;;;;;;;;;;;12.80;66.00;;;;;;4981204;28;20455;-91
2023/01/04 03:54:42;;;;;;;;;;;13.00;65.80;;;;;;4992721;28;19918;-90
2023/01/04 03:57:08;;;;;;;;;;;13.00;65.80;;;;;;4978149;28;19906;-89
2023/01/04 03:59:40;;;;;;;;;;;13.00;66.00;;;;;;4977467;28;19926;-90
2023/01/04 04:02:09;;;;;;;;;;;13.10;65.90;;;;;;4979006;28;19918;-91
2023/01/04 04:10:03;;;;;;;;;;;13.20;65.80;;;;;;4977079;28;19990;-90
2023/01/04 04:12:28;;;;;;;;;;;13.10;66.00;;;;;;4975318;28;19949;-91
2023/01/04 04:14:54;;;;;;;;;;;13.20;66.10;;;;;;4972699;28;19925;-89
2023/01/04 04:17:19;;;;;;;;;;;13.30;65.80;;;;;;4974451;28;20017;-89
2023/01/04 04:19:45;;;;;;;;;;;13.30;65.70;;;;;;4976246;28;20022;-87
2023/01/04 04:22:10;;;;;;;;;;;13.30;65.80;;;;;;4982215;28;19933;-89
2023/01/04 04:24:36;;;;;;;;;;;13.40;65.80;;;;;;4973706;28;19910;-89
2023/01/04 04:27:01;;;;;;;;;;;13.40;65.80;;;;;;4973451;28;20021;-91
2023/01/04 04:29:27;;;;;;;;;;;13.40;65.80;;;;;;4973570;28;19917;-90
2023/01/04 04:31:52;;;;;;;;;;;13.50;65.70;;;;;;4972505;28;19942;-90
2023/01/04 04:34:18;;;;;;;;;;;13.50;65.90;;;;;;4972789;28;19910;-92
2023/01/04 04:36:43;;;;;;;;;;;13.60;65.90;;;;;;4973918;28;20274;-89
2023/01/04 04:39:09;;;;;;;;;;;13.60;65.70;;;;;;4971859;28;20005;-92
2023/01/04 04:41:38;;;;;;;;;;;13.60;65.80;;;;;;4980633;28;19922;-89
2023/01/04 04:44:08;;;;;;;;;;;13.60;66.00;;;;;;4973743;28;19917;-91
2023/01/04 04:46:33;;;;;;;;;;;13.60;65.90;;;;;;4974017;28;19919;-91
2023/01/04 04:48:58;;;;;;;;;;;13.70;65.70;;;;;;4974613;28;20268;-90
2023/01/04 04:51:24;;;;;;;;;;;13.70;65.70;;;;;;4974078;28;19926;-88
2023/01/04 04:53:49;;;;;;;;;;;13.60;66.00;;;;;;4972837;28;19910;-92
2023/01/04 04:56:15;;;;;;;;;;;13.60;66.00;;;;;;4986050;28;19925;-89
2023/01/04 04:58:41;;;;;;;;;;;13.60;66.30;;;;;;4992190;28;19964;-89
2023/01/04 05:01:06;;;;;;;;;;;13.80;66.10;;;;;;4995683;28;19918;-90
2023/01/04 05:03:32;;;;;;;;;;;13.70;66.10;;;;;;4982001;28;20274;-92
2023/01/04 05:05:58;;;;;;;;;;;13.70;66.30;;;;;;4955097;28;19922;-90
2023/01/04 05:08:24;;;;;;;;;;;13.70;66.50;;;;;;4958563;28;19922;-91
2023/01/04 05:10:49;;;;;;;;;;;13.70;66.20;;;;;;4988440;28;19918;-88
2023/01/04 05:13:15;;;;;;;;;;;13.70;66.10;;;;;;4972699;28;19926;-91
2023/01/04 05:15:41;;;;;;;;;;;13.70;66.20;;;;;;4976548;28;19972;-90
2023/01/04 05:18:07;;;;;;;;;;;13.80;66.30;;;;;;4973898;28;19914;-91
2023/01/04 05:20:33;;;;;;;;;;;13.80;66.00;;;;;;4960017;28;20020;-92
2023/01/04 05:22:58;;;;;;;;;;;13.90;65.80;;;;;;4979018;28;19918;-90
2023/01/04 05:25:24;;;;;;;;;;;14.00;65.90;;;;;;4972663;28;20329;-90
2023/01/04 05:27:49;;;;;;;;;;;13.90;66.10;;;;;;4968771;28;19965;-91
2023/01/04 05:32:59;;;;;;;;;;;14.00;66.00;;;;;;4975000;28;19964;-91
2023/01/04 05:35:32;;;;;;;;;;;14.00;66.10;;;;;;5068519;28;19919;-91
2023/01/04 05:37:58;;;;;;;;;;;13.80;66.50;;;;;;5067567;28;19912;-90
2023/01/04 05:40:23;;;;;;;;;;;13.90;66.50;;;;;;5069290;28;19963;-91
2023/01/04 05:42:49;;;;;;;;;;;14.00;66.60;;;;;;5063890;28;19913;-90
2023/01/04 05:45:15;;;;;;;;;;;14.00;66.70;;;;;;5064405;28;20356;-91
2023/01/04 05:47:40;;;;;;;;;;;14.10;66.60;;;;;;5068543;28;20275;-89
2023/01/04 05:50:06;;;;;;;;;;;14.20;66.50;;;;;;5067406;28;19928;-90
2023/01/04 05:52:32;;;;;;;;;;;14.20;66.60;;;;;;5067145;28;19992;-89
2023/01/04 05:54:57;;;;;;;;;;;14.30;66.40;;;;;;5066745;28;20019;-90
2023/01/04 05:57:23;;;;;;;;;;;14.40;66.20;;;;;;5068814;28;20356;-89
2023/01/04 05:59:48;;;;;;;;;;;14.40;66.50;;;;;;5069444;28;19917;-87
2023/01/04 06:02:15;;;;;;;;;;;14.50;66.30;;;;;;5065660;28;20410;-89
2023/01/04 06:04:41;;;;;;;;;;;14.60;66.00;;;;;;5047965;28;19917;-90
2023/01/04 06:07:06;;;;;;;;;;;14.60;66.10;;;;;;5049508;28;19915;-90
2023/01/04 06:09:32;;;;;;;;;;;14.70;65.80;;;;;;5047806;28;20261;-88
2023/01/04 06:11:57;;;;;;;;;;;14.80;65.70;;;;;;5048026;28;19909;-89
2023/01/04 06:14:23;;;;;;;;;;;14.80;65.60;;;;;;5048690;28;19940;-89
2023/01/04 06:16:48;;;;;;;;;;;14.70;65.70;;;;;;5046277;28;20265;-90
2023/01/04 06:19:13;;;;;;;;;;;14.70;65.70;;;;;;5051132;28;19972;-89
2023/01/04 06:21:39;;;;;;;;;;;14.70;65.80;;;;;;5049229;28;19909;-89
2023/01/04 06:24:04;;;;;;;;;;;14.80;65.60;;;;;;5047286;28;19924;-90
2023/01/04 06:26:30;;;;;;;;;;;14.90;65.40;;;;;;5046495;28;19910;-89
2023/01/04 06:28:55;;;;;;;;;;;14.90;65.60;;;;;;5047938;28;19924;-89
2023/01/04 06:31:21;;;;;;;;;;;14.90;65.60;;;;;;5045572;28;20272;-90
2023/01/04 06:33:46;;;;;;;;;;;15.00;65.40;;;;;;5047743;28;19925;-90
2023/01/04 06:36:12;;;;;;;;;;;15.00;65.40;;;;;;5054607;28;19975;-89
2023/01/04 06:38:37;;;;;;;;;;;15.00;65.60;;;;;;5065733;28;19940;-89
2023/01/04 06:41:03;;;;;;;;;;;15.10;65.30;;;;;;5059261;28;20062;-90
2023/01/04 06:43:28;;;;;;;;;;;15.20;65.10;;;;;;5050263;28;20426;-90
2023/01/04 06:45:53;;;;;;;;;;;15.20;65.10;;;;;;5035425;28;19921;-90
2023/01/04 06:48:19;;;;;;;;;;;15.20;65.30;;;;;;5043966;28;19917;-90
2023/01/04 06:50:44;;;;;;;;;;;15.20;65.20;;;;;;5036034;28;19917;-89
2023/01/04 06:53:10;;;;;;;;;;;15.30;64.90;;;;;;5035394;28;19917;-89
2023/01/04 06:55:35;;;;;;;;;;;15.30;65.00;;;;;;5042713;28;19917;-88
2023/01/04 06:58:01;;;;;;;;;;;15.30;64.90;;;;;;5033509;28;19917;-89
2023/01/04 07:00:26;;;;;;;;;;;15.30;65.00;;;;;;5029371;28;19923;-88
2023/01/04 07:02:52;;;;;;;;;;;15.30;65.20;;;;;;5029879;28;20767;-90
2023/01/04 07:05:17;;;;;;;;;;;15.20;65.60;;;;;;5033626;28;19921;-89
2023/01/04 07:07:43;;;;;;;;;;;15.20;65.50;;;;;;5040030;28;19923;-88
2023/01/04 07:10:08;;;;;;;;;;;15.40;65.00;;;;;;5037030;28;19974;-89
2023/01/04 07:12:34;;;;;;;;;;;15.40;65.20;;;;;;5035969;28;20437;-90
2023/01/04 07:14:59;;;;;;;;;;;15.40;65.10;;;;;;5036385;28;19962;-89
2023/01/04 07:17:25;;;;;;;;;;;15.30;65.60;;;;;;5029099;28;20653;-90
2023/01/04 07:19:50;;;;;;;;;;;15.40;65.10;;;;;;5029408;28;20368;-90
2023/01/04 07:22:16;;;;;;;;;;;15.40;65.10;;;;;;5036016;28;19929;-89
2023/01/04 07:24:42;;;;;;;;;;;15.40;65.30;;;;;;5037979;28;19921;-89
2023/01/04 07:27:11;;;;;;;;;;;15.50;65.20;;;;;;5030415;28;19921;-90
2023/01/04 07:29:36;;;;;;;;;;;15.50;65.10;;;;;;5031288;28;19925;-89
2023/01/04 07:32:02;;;;;;;;;;;15.50;64.90;;;;;;5030558;28;19923;-88
2023/01/04 07:34:28;;;;;;;;;;;15.60;64.90;;;;;;5027728;28;20020;-90
2023/01/04 07:36:53;;;;;;;;;;;15.60;65.00;;;;;;5040031;28;19921;-91
2023/01/04 07:39:19;;;;;;;;;;;15.60;64.90;;;;;;5035862;28;20379;-89
2023/01/04 07:41:45;;;;;;;;;;;15.60;65.00;;;;;;5045379;28;19924;-89
2023/01/04 07:44:11;;;;;;;;;;;15.50;65.20;;;;;;5039563;28;19921;-89
2023/01/04 07:46:37;;;;;;;;;;;15.50;65.20;;;;;;5039224;28;19916;-90
2023/01/04 07:49:03;;;;;;;;;;;15.50;65.20;;;;;;5045208;28;19921;-89
2023/01/04 07:51:29;;;;;;;;;;;15.50;65.60;;;;;;5039611;28;19917;-90
2023/01/04 07:53:54;;;;;;;;;;;15.40;65.50;;;;;;5031017;28;20320;-88
2023/01/04 07:56:20;;;;;;;;;;;15.50;65.10;;;;;;5040162;28;19917;-89
2023/01/04 07:58:45;;;;;;;;;;;15.60;64.90;;;;;;5029241;28;19979;-89
2023/01/04 08:01:12;;;;;;;;;;;15.70;64.80;;;;;;5036482;28;20556;-90
2023/01/04 08:03:38;;;;;;;;;;;15.70;64.80;;;;;;5036963;28;19920;-89
2023/01/04 08:06:05;;;;;;;;;;;15.60;65.30;;;;;;5027151;28;19921;-91
2023/01/04 08:08:30;;;;;;;;;;;15.60;65.20;;;;;;5031247;28;19936;-88
2023/01/04 08:10:59;;;;;;;;;;;15.60;65.20;;;;;;5045307;28;20331;-89
2023/01/04 08:13:24;;;;;;;;;;;15.60;64.80;;;;;;5046620;28;19968;-92
2023/01/04 08:15:53;;;;;;;;;;;15.50;64.70;;;;;;5046285;28;19956;-89
2023/01/04 08:18:18;;;;;;;;;;;15.40;64.70;;;;;;5028771;28;19913;-90
2023/01/04 08:20:44;;;;;;;;;;;15.30;65.00;;;;;;5035858;28;19929;-90
2023/01/04 08:23:09;;;;;;;;;;;15.30;65.20;;;;;;5038643;28;20603;-89
2023/01/04 08:25:34;;;;;;;;;;;15.30;65.40;;;;;;5032298;28;19917;-89
2023/01/04 08:28:00;;;;;;;;;;;15.20;65.50;;;;;;5038961;28;19917;-90
2023/01/04 08:30:25;;;;;;;;;;;15.20;65.80;;;;;;5045182;28;20015;-90
2023/01/04 08:32:52;;;;;;;;;;;15.20;65.90;;;;;;5037796;28;20028;-91
2023/01/04 08:35:19;;;;;;;;;;;15.00;66.20;;;;;;5031638;28;19943;-89
2023/01/04 08:37:44;;;;;;;;;;;15.00;66.50;;;;;;5028294;28;19928;-91
2023/01/04 08:40:10;;;;;;;;;;;15.00;66.60;;;;;;5028057;28;20360;-89
2023/01/04 08:42:36;;;;;;;;;;;15.20;66.40;;;;;;5026304;28;19917;-90
2023/01/04 08:45:01;;;;;;;;;;;15.20;66.60;;;;;;5025800;28;19927;-89
2023/01/04 08:47:28;;;;;;;;;;;15.30;66.40;;;;;;5030199;28;19917;-89
2023/01/04 08:49:53;;;;;;;;;;;15.20;66.60;;;;;;5031541;28;20272;-89
2023/01/04 08:52:19;;;;;;;;;;;15.30;66.50;;;;;;5041332;28;20577;-89
2023/01/04 08:54:44;;;;;;;;;;;15.30;66.80;;;;;;5031058;28;19940;-90
2023/01/04 08:57:10;;;;;;;;;;;15.40;66.50;;;;;;5031598;28;20145;-90
2023/01/04 08:59:35;;;;;;;;;;;15.40;66.70;;;;;;5033537;28;19920;-89
2023/01/04 09:02:01;;;;;;;;;;;15.60;66.60;;;;;;5028790;28;19925;-91
2023/01/04 09:04:32;;;;;;;;;;;15.70;66.30;;;;;;5036745;28;19964;-91
2023/01/04 09:06:58;;;;;;;;;;;15.70;66.20;;;;;;5036661;28;20312;-91
2023/01/04 09:09:24;;;;;;;;;;;15.80;65.90;;;;;;5036102;28;19952;-89
2023/01/04 09:11:49;;;;;;;;;;;15.80;65.90;;;;;;5038043;28;19971;-88
2023/01/04 09:14:15;;;;;;;;;;;16.00;65.80;;;;;;5039040;28;19928;-89
2023/01/04 09:16:40;;;;;;;;;;;16.00;65.80;;;;;;5034709;28;19925;-90
2023/01/04 09:19:07;;;;;;;;;;;16.00;65.60;;;;;;5029070;28;19921;-88
2023/01/04 09:21:32;;;;;;;;;;;16.00;65.80;;;;;;5032376;28;19974;-90
2023/01/04 09:23:58;;;;;;;;;;;16.00;65.70;;;;;;5025585;28;20322;-92
2023/01/04 09:26:23;;;;;;;;;;;15.90;65.80;;;;;;5035729;28;19917;-87
2023/01/04 09:28:50;;;;;;;;;;;15.80;65.80;;;;;;5027763;28;19917;-90
2023/01/04 09:31:17;;;;;;;;;;;15.80;66.20;;;;;;5033768;28;19927;-90
2023/01/04 09:33:43;;;;;;;;;;;15.80;66.30;;;;;;5033538;28;19940;-89
2023/01/04 09:36:11;;;;;;;;;;;15.80;66.30;;;;;;5028375;28;19921;-89
2023/01/04 09:38:37;;;;;;;;;;;15.80;66.20;;;;;;5040830;28;19921;-88
2023/01/04 09:41:11;;;;;;;;;;;15.80;66.10;;;;;;5039502;28;19939;-89
2023/01/04 09:43:42;;;;;;;;;;;15.80;66.30;;;;;;5035167;28;19920;-90
2023/01/04 09:46:09;;;;;;;;;;;15.80;66.40;;;;;;5044768;28;20398;-89
2023/01/04 09:48:35;;;;;;;;;;;15.70;66.50;;;;;;5042159;28;19925;-88
2023/01/04 09:51:02;;;;;;;;;;;15.80;66.70;;;;;;5042189;28;19917;-89
2023/01/04 09:53:46;;;;;;;;;;;15.80;66.60;;;;;;5031381;28;19920;-90
2023/01/04 09:56:30;;;;;;;;;;;15.80;66.40;;;;;;5032486;28;19916;-89
2023/01/04 09:58:56;;;;;;;;;;;15.90;66.10;;;;;;5038131;28;20008;-88
2023/01/04 10:01:27;;;;;;;;;;;15.80;66.20;;;;;;5032798;28;19913;-89
2023/01/04 10:04:15;;;;;;;;;;;15.80;66.00;;;;;;5031293;28;20007;-91
2023/01/04 10:06:41;;;;;;;;;;;15.80;65.90;;;;;;5037929;28;20435;-91
2023/01/04 10:09:10;;;;;;;;;;;15.70;66.40;;;;;;5039866;28;19921;-91
2023/01/04 10:11:54;;;;;;;;;;;15.50;66.60;;;;;;5031266;28;20007;-89
2023/01/04 10:14:29;;;;;;;;;;;15.70;66.50;;;;;;5030938;28;19925;-87
2023/01/04 10:17:01;;;;;;;;;;;15.70;66.60;;;;;;5037506;28;19974;-89
2023/01/04 10:19:45;;;;;;;;;;;15.80;66.50;;;;;;5036072;28;20511;-90
2023/01/04 10:22:10;;;;;;;;;;;15.80;66.50;;;;;;5042906;28;19921;-90
2023/01/04 10:24:36;;;;;;;;;;;15.80;66.60;;;;;;5054600;28;20534;-89
2023/01/04 10:27:18;;;;;;;;;;;15.80;66.50;;;;;;5036528;28;20340;-86
2023/01/04 10:30:02;;;;;;;;;;;15.70;66.70;;;;;;5032209;28;19988;-87
2023/01/04 10:32:33;;;;;;;;;;;15.80;66.60;;;;;;5040754;28;19916;-88
2023/01/04 10:34:59;;;;;;;;;;;15.70;66.80;;;;;;5041674;28;19925;-92
2023/01/04 10:37:31;;;;;;;;;;;15.70;66.80;;;;;;5037231;28;19959;-89
2023/01/04 10:39:56;;;;;;;;;;;15.70;67.00;;;;;;5036161;28;19960;-90
2023/01/04 10:42:31;;;;;;;;;;;15.80;66.80;;;;;;5043319;28;20480;-88
2023/01/04 10:44:56;;;;;;;;;;;15.80;66.90;;;;;;5040266;28;19987;-89
2023/01/04 10:47:29;;;;;;;;;;;15.80;66.90;;;;;;5043015;28;19917;-88
2023/01/04 10:50:00;;;;;;;;;;;15.90;66.70;;;;;;5035719;28;19983;-90
2023/01/04 10:52:31;;;;;;;;;;;15.90;66.90;;;;;;5041224;28;19943;-94
2023/01/04 10:54:59;;;;;;;;;;;16.00;66.80;;;;;;5034972;28;20034;-88
2023/01/04 10:57:39;;;;;;;;;;;16.00;66.80;;;;;;5049342;28;20295;-88
2023/01/04 11:00:13;;;;;;;;;;;16.00;66.80;;;;;;5051897;28;19929;-89
2023/01/04 11:02:47;;;;;;;;;;;16.00;66.90;;;;;;5035596;28;19992;-89
2023/01/04 11:05:19;;;;;;;;;;;16.00;66.80;;;;;;5033333;28;19913;-90
2023/01/04 11:07:54;;;;;;;;;;;16.00;66.80;;;;;;5037415;28;19925;-89
2023/01/04 11:10:27;;;;;;;;;;;16.10;66.70;;;;;;5038126;28;19921;-89
2023/01/04 11:12:53;;;;;;;;;;;16.20;66.70;;;;;;5050042;28;20015;-92
2023/01/04 11:15:18;;;;;;;;;;;16.20;66.70;;;;;;5043280;28;20024;-89
2023/01/04 11:17:44;;;;;;;;;;;16.20;66.70;;;;;;5042652;28;19921;-89
2023/01/04 11:20:10;;;;;;;;;;;16.20;66.80;;;;;;5035533;28;19942;-89
2023/01/04 11:22:57;;;;;;;;;;;16.30;66.60;;;;;;5031483;28;20023;-86
2023/01/04 11:25:23;;;;;;;;;;;16.20;66.70;;;;;;5032388;28;20279;-90
2023/01/04 11:27:51;;;;;;;;;;;16.20;66.80;;;;;;5043716;28;19920;-89
2023/01/04 11:30:37;;;;;;;;;;;16.30;66.60;;;;;;5038881;28;20377;-89
2023/01/04 11:33:08;;;;;;;;;;;16.20;66.60;;;;;;5047418;28;19918;-89
2023/01/04 11:35:39;;;;;;;;;;;16.30;66.60;;;;;;5037066;28;19925;-89
2023/01/04 11:38:14;;;;;;;;;;;16.20;66.70;;;;;;5037861;28;19994;-90
2023/01/04 11:40:40;;;;;;;;;;;16.20;66.70;;;;;;5049102;28;19917;-90
2023/01/04 11:43:17;;;;;;;;;;;16.20;66.80;;;;;;5049998;28;19912;-87
2023/01/04 11:45:54;;;;;;;;;;;16.30;66.80;;;;;;5039814;28;20000;-88
2023/01/04 11:48:29;;;;;;;;;;;16.30;66.70;;;;;;5046719;28;19924;-89
2023/01/04 11:50:55;;;;;;;;;;;16.30;66.70;;;;;;5049429;28;19959;-90
2023/01/04 11:53:31;;;;;;;;;;;16.40;66.70;;;;;;5050073;28;20014;-90
2023/01/04 11:56:16;;;;;;;;;;;16.40;66.80;;;;;;5048073;28;19929;-90
2023/01/04 11:58:42;;;;;;;;;;;16.30;66.80;;;;;;5039616;28;19921;-88
2023/01/04 12:01:21;;;;;;;;;;;16.40;66.80;;;;;;5037870;28;19924;-90
2023/01/04 12:03:47;;;;;;;;;;;16.40;66.70;;;;;;5048722;28;19959;-89
2023/01/04 12:06:15;;;;;;;;;;;16.40;66.80;;;;;;5048932;28;19954;-89
2023/01/04 12:08:41;;;;;;;;;;;16.40;66.70;;;;;;5033642;28;19921;-89
2023/01/04 12:11:13;;;;;;;;;;;16.50;66.70;;;;;;5041110;28;19924;-90
2023/01/04 12:13:39;;;;;;;;;;;16.40;66.80;;;;;;5046419;28;19929;-89
2023/01/04 12:16:07;;;;;;;;;;;16.40;66.90;;;;;;5036653;28;19932;-90
2023/01/04 12:18:35;;;;;;;;;;;16.40;66.80;;;;;;5027920;28;19928;-89
2023/01/04 12:21:01;;;;;;;;;;;16.50;66.70;;;;;;5040686;28;20371;-89
2023/01/04 12:23:26;;;;;;;;;;;16.50;66.70;;;;;;5027044;28;19917;-89
2023/01/04 12:25:53;;;;;;;;;;;16.50;66.70;;;;;;5029697;28;19917;-86
2023/01/04 12:28:33;;;;;;;;;;;16.50;66.80;;;;;;5034429;28;19924;-88
2023/01/04 12:31:17;;;;;;;;;;;16.50;66.70;;;;;;5036124;28;19960;-88
2023/01/04 12:33:43;;;;;;;;;;;16.50;66.70;;;;;;5048888;28;19932;-89
2023/01/04 12:36:10;;;;;;;;;;;16.50;66.80;;;;;;5035824;28;19917;-89
2023/01/04 12:38:50;;;;;;;;;;;16.60;66.80;;;;;;5028769;28;19925;-88
2023/01/04 12:41:16;;;;;;;;;;;16.60;66.80;;;;;;5046986;28;19932;-88
2023/01/04 12:43:42;;;;;;;;;;;16.60;66.80;;;;;;5043603;28;19921;-90
2023/01/04 12:49:26;;;;;;;;;;;16.70;66.90;;;;;;5036086;28;19927;-88
2023/01/04 12:52:07;;;;;;;;;;;16.70;67.00;;;;;;5026010;28;19913;-90
2023/01/04 12:54:46;;;;;;;;;;;16.70;67.00;;;;;;5033647;28;19964;-90
2023/01/04 12:57:14;;;;;;;;;;;16.70;67.00;;;;;;5043853;28;20395;-90
2023/01/04 12:59:55;;;;;;;;;;;16.70;67.00;;;;;;5047200;28;19921;-90
2023/01/04 13:02:49;;;;;;;;;;;16.80;66.90;;;;;;5042689;28;19956;-89
2023/01/04 13:05:17;;;;;;;;;;;16.70;67.10;;;;;;5037074;28;20391;-90
2023/01/04 13:07:56;;;;;;;;;;;16.70;67.10;;;;;;5040311;28;19924;-90
2023/01/04 13:10:37;;;;;;;;;;;16.80;67.20;;;;;;5029441;28;20384;-88
2023/01/04 13:13:17;;;;;;;;;;;16.80;67.00;;;;;;5031049;28;20566;-88
2023/01/04 13:15:47;;;;;;;;;;;16.80;67.00;;;;;;5045514;28;19925;-89
2023/01/04 13:18:31;;;;;;;;;;;16.80;67.10;;;;;;5047341;28;19923;-89
2023/01/04 13:20:57;;;;;;;;;;;16.90;67.00;;;;;;5042230;28;20070;-89
2023/01/04 13:23:26;;;;;;;;;;;16.90;67.00;;;;;;5039092;28;20538;-89
2023/01/04 13:25:51;;;;;;;;;;;16.90;67.00;;;;;;5046453;28;20002;-89
2023/01/04 13:28:17;;;;;;;;;;;17.00;66.90;;;;;;5047929;28;19960;-89
2023/01/04 13:30:43;;;;;;;;;;;17.00;66.80;;;;;;5036683;28;19924;-89
2023/01/04 13:33:19;;;;;;;;;;;17.00;66.80;;;;;;5046708;28;19917;-90
2023/01/04 13:35:58;;;;;;;;;;;17.00;66.90;;;;;;5034122;28;20406;-90
2023/01/04 13:38:26;;;;;;;;;;;17.10;66.80;;;;;;5041023;28;19928;-89
2023/01/04 13:40:52;;;;;;;;;;;17.00;66.80;;;;;;5026308;28;19917;-89
2023/01/04 13:43:36;;;;;;;;;;;17.10;66.80;;;;;;5024829;28;19917;-89
2023/01/04 13:46:21;;;;;;;;;;;17.10;66.90;;;;;;5027005;28;19923;-88
2023/01/04 13:48:48;;;;;;;;;;;17.00;67.00;;;;;;5027189;28;19998;-89
2023/01/04 13:51:16;;;;;;;;;;;17.00;67.10;;;;;;5034963;28;19916;-89
2023/01/04 13:53:49;;;;;;;;;;;17.10;67.00;;;;;;5034490;28;19967;-89
2023/01/04 13:56:23;;;;;;;;;;;17.00;67.40;;;;;;5048826;28;20003;-89
2023/01/04 13:58:48;;;;;;;;;;;17.20;67.10;;;;;;5050854;28;19920;-89
2023/01/04 14:01:18;;;;;;;;;;;17.20;66.80;;;;;;5045948;28;19951;-90
2023/01/04 14:04:19;;;;;;;;;;;17.20;66.70;;;;;;5039719;28;19921;-90
2023/01/04 14:06:47;;;;;;;;;;;17.20;66.90;;;;;;5047368;28;19921;-90
2023/01/04 14:09:17;;;;;;;;;;;17.20;66.90;;;;;;5042370;28;20451;-90
2023/01/04 14:11:57;;;;;;;;;;;17.20;66.90;;;;;;5042586;28;19944;-90
2023/01/04 14:14:42;;;;;;;;;;;17.20;66.80;;;;;;5039352;28;19968;-89
2023/01/04 14:17:12;;;;;;;;;;;17.30;66.80;;;;;;5039807;28;19995;-90
2023/01/04 14:19:45;;;;;;;;;;;17.30;66.80;;;;;;5046680;28;19970;-90
2023/01/04 14:22:20;;;;;;;;;;;17.30;66.80;;;;;;5040239;28;19917;-89
2023/01/04 14:24:46;;;;;;;;;;;17.30;66.80;;;;;;5031787;28;19925;-88
2023/01/04 14:27:31;;;;;;;;;;;17.30;66.90;;;;;;5046288;28;19924;-89
2023/01/04 14:29:56;;;;;;;;;;;17.30;66.90;;;;;;5035518;28;20352;-90
2023/01/04 14:32:22;;;;;;;;;;;17.30;66.90;;;;;;5037769;28;19999;-89
2023/01/04 14:34:47;;;;;;;;;;;17.30;66.80;;;;;;5032687;28;20525;-88
2023/01/04 14:37:13;;;;;;;;;;;17.30;66.90;;;;;;5028563;28;19932;-89
2023/01/04 14:39:38;;;;;;;;;;;17.30;66.80;;;;;;5047285;28;20008;-89
2023/01/04 14:42:24;;;;;;;;;;;17.40;66.90;;;;;;5047292;28;19921;-89
2023/01/04 14:44:50;;;;;;;;;;;17.40;67.00;;;;;;5046992;28;19932;-89
2023/01/04 14:47:15;;;;;;;;;;;17.40;67.20;;;;;;5041940;28;19916;-90
2023/01/04 14:49:41;;;;;;;;;;;17.50;67.10;;;;;;5046237;28;19920;-89
2023/01/04 14:52:11;;;;;;;;;;;17.50;66.90;;;;;;5014019;28;19951;-90
2023/01/04 14:54:38;;;;;;;;;;;17.60;66.90;;;;;;5029687;28;19929;-89
2023/01/04 14:57:04;;;;;;;;;;;17.60;66.80;;;;;;5040206;28;20016;-89
2023/01/04 14:59:29;;;;;;;;;;;17.70;66.80;;;;;;5035504;28;19996;-89
2023/01/04 15:01:55;;;;;;;;;;;17.70;66.80;;;;;;5037100;28;19951;-89
2023/01/04 15:04:21;;;;;;;;;;;17.70;66.70;;;;;;5030284;28;19925;-89
2023/01/04 15:06:48;;;;;;;;;;;17.70;66.70;;;;;;5047633;28;19920;-89
2023/01/04 15:09:14;;;;;;;;;;;17.70;66.60;;;;;;5031298;28;19961;-90
2023/01/04 15:11:39;;;;;;;;;;;17.80;66.40;;;;;;5028886;28;19965;-88